RPLLRPVK

Guest
Details From RPLL - Ninoy Aquino International Airport
To RPVK - KALIBO
Flight Number -
Tags generated
Created
Modified
Stats Distance 190 nm / 352 km
Max Altitude 21,600 ft / 6,584 m
Waypoints 4
Social Downloads 4
Likes 0
Share

Download

Looking for another format? Having issues loading an existing format? Contact us
Advertisement - Login to hide

Notes

Basic altitude profile: - Ascent Rate: 2500ft/min - Ascent Speed: 230kts - Cruise Altitude: 29000ft - Cruise Speed: 350kts - Descent Rate: 1700ft/min - Descent Speed: 270kts Options: - Use NATs: yes - Use PACOTS: yes - Use low airways: yes - Use high airways: yes

Route

RPLL IBAGO B472 TAPER RPVK

ID Type Via Altitude (ft/m) Position (lat/lon) Dist (leg/tot) Name
O RPLL APT - 0 / 0 14.51151 / 121.01272 - / 0 nm Ninoy Aquino International Airport
IBAGO FIX - 21,600 / 6,584 13.54354 / 121.30883 60 / 60 nm
TAPER FIX B472 (AWY-LO) 11,200 / 3,414 12.36573 / 121.82492 76 / 137 nm
O RPVK APT - 0 / 0 11.67943 / 122.37629 52 / 189 nm KALIBO

Altitude Profile

Advertisement - Login to hide

Weather


0- 5 10 15 20 25 30 35+ Temperature / °C

Clouds and Precipitation
Forecast for 2021-03-22 12:00 UTC. Updated 2 months ago

Ground ~20,000 ft ~40,000 ft Winds

RPLL

Details ICAO RPLL (MNL)
Name Ninoy Aquino Intl
Region Philippines
Timezone Asia/Manila (UTC+8.0)
Stats Elevation 75 ft / 23 m (AMSL)
Location 14.511300° 121.013000°
Runways 2
Magnetic Variation 2.489° W

METAR

RPLL 140000Z 12005KT 070V180 9999 FEW025 SCT080 31/22 Q1010 NOSIG RMK A2983

Decode

TAF

TAF RPLL 132300Z 1400/1506 11007KT 9999 FEW025 TX36/1406Z TN28/1421Z TEMPO 1403/1409 13015KT

Decode

Departure Runways

ID Width Length Bearing (true/mag) Surface Threshold Overrun Markings Lighting
06 197 ft / 60 m 11,742 ft / 3,579 m 60.15° / 62.64° ASPHALT 545 ft / 166 m 0 ft / 0 m PREC-APP CENTERLINE EDGE THRESHOLD ALSF-I TDZ REIL-OMNI
13 144 ft / 44 m 7,729 ft / 2,356 m 134.96° / 137.45° ASPHALT 804 ft / 245 m 0 ft / 0 m PREC-APP CENTERLINE EDGE THRESHOLD REIL-OMNI
24 197 ft / 60 m 11,742 ft / 3,579 m 240.15° / 242.64° ASPHALT 0 ft / 0 m 0 ft / 0 m PREC-APP CENTERLINE EDGE THRESHOLD ALSF-I TDZ REIL-OMNI
31 144 ft / 44 m 7,729 ft / 2,356 m 314.96° / 317.45° ASPHALT 0 ft / 0 m 0 ft / 0 m VISUAL CENTERLINE EDGE THRESHOLD

RPVK

Details ICAO RPVK (KLO)
Name KALIBO
Region Philippines
Timezone Asia/Manila (UTC+8.0)
Stats Elevation 14 ft / 4 m (AMSL)
Location 11.680400° 122.376000°
Runways 1
Magnetic Variation 2.009° W

METAR

Not found

TAF

TAF RPVK 132300Z 1400/1424 08008KT 9999 FEW016 SCT070 BKN240 TEMPO 1400/1406 09014KT 8000 -SHRA FEW015CB SCT016 BKN070

Decode

Destination Runways

ID Width Length Bearing (true/mag) Surface Threshold Overrun Markings Lighting
05 148 ft / 45 m 7,192 ft / 2,192 m 48.68° / 50.69° CONCRETE 0 ft / 0 m 197 ft / 60 m PREC-APP EDGE THRESHOLD
23 148 ft / 45 m 7,192 ft / 2,192 m 228.68° / 230.69° CONCRETE 0 ft / 0 m 0 ft / 0 m PREC-APP EDGE THRESHOLD SALS

Popular Alternatives